createdAt,value
2019-04-22T00:00:24.599Z,1015.39
2019-04-22T00:01:25.884Z,1015.40
2019-04-22T00:02:20.850Z,1015.40
2019-04-22T00:03:27.140Z,1015.37
2019-04-22T00:04:33.816Z,1015.41
2019-04-22T00:05:42.896Z,1015.38
2019-04-22T00:06:44.398Z,1015.43
2019-04-22T00:07:41.933Z,1015.38
2019-04-22T00:08:43.092Z,1015.37
2019-04-22T00:09:49.406Z,1015.39
2019-04-22T00:10:46.776Z,1015.37
2019-04-22T00:11:48.511Z,1015.38
2019-04-22T00:12:48.647Z,1015.39
2019-04-22T00:14:00.940Z,1015.41
2019-04-22T00:14:42.522Z,1015.38
2019-04-22T00:15:41.796Z,1015.36
2019-04-22T00:16:53.630Z,1015.38
2019-04-22T00:17:53.773Z,1015.32
2019-04-22T00:19:01.762Z,1015.35
2019-04-22T00:19:55.611Z,1015.35
2019-04-22T00:20:50.447Z,1015.33
2019-04-22T00:21:48.998Z,1015.33
2019-04-22T00:22:44.893Z,1015.33
2019-04-22T00:23:45.298Z,1015.34
2019-04-22T00:24:45.998Z,1015.33
2019-04-22T00:25:53.952Z,1015.32
2019-04-22T00:26:50.223Z,1015.32
2019-04-22T00:27:50.319Z,1015.34
2019-04-22T00:28:49.954Z,1015.30
2019-04-22T00:30:47.026Z,1015.27
2019-04-22T00:31:47.992Z,1015.27
2019-04-22T00:32:44.978Z,1015.25
2019-04-22T00:33:45.083Z,1015.20
2019-04-22T00:34:42.609Z,1015.23
2019-04-22T00:35:41.322Z,1015.21
2019-04-22T00:36:43.126Z,1015.23
2019-04-22T00:37:54.079Z,1015.16
2019-04-22T00:38:44.265Z,1015.18
2019-04-22T00:39:46.662Z,1015.18
2019-04-22T00:40:45.076Z,1015.16
2019-04-22T00:41:51.978Z,1015.18
2019-04-22T00:42:47.624Z,1015.16
2019-04-22T00:43:49.772Z,1015.15
2019-04-22T00:44:45.604Z,1015.17
2019-04-22T00:45:48.137Z,1015.15
2019-04-22T00:46:46.350Z,1015.17
2019-04-22T00:47:46.186Z,1015.18
2019-04-22T00:49:05.800Z,1015.18
2019-04-22T00:50:14.606Z,1015.20
2019-04-22T00:50:58.276Z,1015.22
2019-04-22T00:51:52.191Z,1015.20
2019-04-22T00:52:49.047Z,1015.18
2019-04-22T00:53:48.858Z,1015.17
2019-04-22T00:54:55.678Z,1015.16
2019-04-22T00:55:46.334Z,1015.16
2019-04-22T00:56:47.737Z,1015.18
2019-04-22T00:57:46.295Z,1015.20
2019-04-22T00:58:45.114Z,1015.21
2019-04-22T00:59:50.808Z,1015.18
2019-04-22T01:00:44.296Z,1015.20
2019-04-22T01:01:50.604Z,1015.18
2019-04-22T01:02:49.707Z,1015.18
2019-04-22T01:03:50.257Z,1015.14
2019-04-22T01:04:47.551Z,1015.13
2019-04-22T01:05:46.929Z,1015.17
2019-04-22T01:06:48.936Z,1015.12
2019-04-22T01:07:43.531Z,1015.18
2019-04-22T01:08:53.736Z,1015.17
2019-04-22T01:09:56.175Z,1015.13
2019-04-22T01:10:45.444Z,1015.12
2019-04-22T01:11:44.614Z,1015.17
2019-04-22T01:12:44.961Z,1015.14
2019-04-22T01:13:46.868Z,1015.12
2019-04-22T01:14:47.840Z,1015.10
2019-04-22T01:15:47.769Z,1015.14
2019-04-22T01:16:50.441Z,1015.11
2019-04-22T01:17:46.427Z,1015.14
2019-04-22T01:18:45.823Z,1015.09
2019-04-22T01:19:52.643Z,1015.13
2019-04-22T01:21:44.962Z,1015.08
2019-04-22T01:22:46.690Z,1015.09
2019-04-22T01:23:43.824Z,1015.06
2019-04-22T01:24:38.687Z,1015.09
2019-04-22T01:25:42.121Z,1015.04
2019-04-22T01:26:41.912Z,1014.98
2019-04-22T01:27:41.862Z,1014.99
2019-04-22T01:28:34.174Z,1014.99
2019-04-22T01:29:35.015Z,1014.97
2019-04-22T01:30:32.951Z,1014.95
2019-04-22T01:31:26.895Z,1014.96
2019-04-22T01:32:27.305Z,1014.91
2019-04-22T01:33:29.375Z,1014.96
2019-04-22T01:34:36.446Z,1014.94
2019-04-22T01:35:37.656Z,1014.96
2019-04-22T01:36:45.713Z,1014.92
2019-04-22T01:37:43.338Z,1014.92
2019-04-22T01:38:45.663Z,1014.99
2019-04-22T01:39:50.467Z,1014.97
2019-04-22T01:40:53.919Z,1014.90
2019-04-22T01:41:55.286Z,1014.93
2019-04-22T01:42:50.323Z,1014.88
2019-04-22T01:44:45.469Z,1014.85
2019-04-22T01:45:49.678Z,1014.86
2019-04-22T01:47:03.449Z,1014.84
2019-04-22T01:48:05.436Z,1014.85
2019-04-22T01:48:47.717Z,1014.86
2019-04-22T01:49:50.201Z,1014.86
2019-04-22T01:50:44.296Z,1014.86
2019-04-22T01:51:59.340Z,1014.81
2019-04-22T01:52:53.163Z,1014.81
2019-04-22T01:53:50.445Z,1014.85
2019-04-22T01:54:52.703Z,1014.83
2019-04-22T01:56:46.931Z,1014.81
2019-04-22T01:57:47.787Z,1014.87
2019-04-22T01:58:38.151Z,1014.81
2019-04-22T01:59:40.366Z,1014.83
2019-04-22T02:00:49.385Z,1014.85
2019-04-22T02:01:49.932Z,1014.81
2019-04-22T02:02:48.736Z,1014.83
2019-04-22T02:03:46.505Z,1014.78
2019-04-22T02:05:10.577Z,1014.80
2019-04-22T02:05:44.155Z,1014.78
2019-04-22T02:06:48.554Z,1014.78
2019-04-22T02:07:49.036Z,1014.72
2019-04-22T02:08:53.301Z,1014.72
2019-04-22T02:09:53.345Z,1014.68
2019-04-22T02:10:54.606Z,1014.72
2019-04-22T02:12:45.945Z,1014.70
2019-04-22T02:13:49.512Z,1014.65
2019-04-22T02:14:44.285Z,1014.65
2019-04-22T02:15:52.473Z,1014.64
2019-04-22T02:16:49.781Z,1014.65
2019-04-22T02:18:10.714Z,1014.72
2019-04-22T02:18:53.091Z,1014.64
2019-04-22T02:19:53.489Z,1014.69
2019-04-22T02:21:01.694Z,1014.67
2019-04-22T02:21:48.829Z,1014.68
2019-04-22T02:23:00.772Z,1014.69
2019-04-22T02:25:51.518Z,1014.70
2019-04-22T02:27:09.236Z,1014.68
2019-04-22T02:27:54.622Z,1014.73
2019-04-22T02:29:01.920Z,1014.69
2019-04-22T02:29:50.101Z,1014.74
2019-04-22T02:31:16.155Z,1014.69
2019-04-22T02:32:17.167Z,1014.70
2019-04-22T02:33:11.620Z,1014.66
2019-04-22T02:35:01.313Z,1014.67
2019-04-22T02:36:11.757Z,1014.69
2019-04-22T02:36:54.782Z,1014.65
2019-04-22T02:37:45.515Z,1014.66
2019-04-22T02:39:57.651Z,1014.67
2019-04-22T02:41:52.463Z,1014.67
2019-04-22T02:42:58.105Z,1014.68
2019-04-22T02:44:53.679Z,1014.69
2019-04-22T02:46:26.761Z,1014.65
2019-04-22T02:47:07.882Z,1014.66
2019-04-22T02:47:49.918Z,1014.65
2019-04-22T02:49:53.599Z,1014.63
2019-04-22T02:50:54.905Z,1014.63
2019-04-22T02:51:47.360Z,1014.65
2019-04-22T02:53:19.065Z,1014.63
2019-04-22T02:54:55.100Z,1014.60
2019-04-22T02:56:08.215Z,1014.58
2019-04-22T02:56:48.636Z,1014.59
2019-04-22T02:57:49.453Z,1014.61
2019-04-22T03:00:01.113Z,1014.55
2019-04-22T03:00:58.265Z,1014.56
2019-04-22T03:02:10.039Z,1014.57
2019-04-22T03:03:09.172Z,1014.58
2019-04-22T03:04:06.784Z,1014.51
2019-04-22T03:04:52.944Z,1014.49
2019-04-22T03:06:15.393Z,1014.51
2019-04-22T03:06:42.616Z,1014.50
2019-04-22T03:07:58.798Z,1014.51
2019-04-22T03:09:12.647Z,1014.55
2019-04-22T03:09:52.788Z,1014.55
2019-04-22T03:11:15.208Z,1014.57
2019-04-22T03:12:02.765Z,1014.57
2019-04-22T03:12:53.940Z,1014.56
2019-04-22T03:13:59.949Z,1014.57
2019-04-22T03:14:54.888Z,1014.59
2019-04-22T03:15:59.684Z,1014.53
2019-04-22T03:17:51.650Z,1014.55
2019-04-22T03:19:02.921Z,1014.53
2019-04-22T03:20:58.010Z,1014.56
2019-04-22T03:21:54.655Z,1014.58
2019-04-22T03:22:59.994Z,1014.58
2019-04-22T03:24:08.533Z,1014.55
2019-04-22T03:27:47.866Z,1014.63
2019-04-22T03:28:54.957Z,1014.54
2019-04-22T03:30:26.705Z,1014.55
2019-04-22T03:36:18.350Z,1014.50
2019-04-22T03:39:15.604Z,1014.44
2019-04-22T03:40:07.666Z,1014.43
2019-04-22T03:41:16.964Z,1014.43
2019-04-22T03:43:09.184Z,1014.43
2019-04-22T03:43:14.082Z,1014.43
2019-04-22T03:44:10.200Z,1014.42
2019-04-22T03:45:01.233Z,1014.41
2019-04-22T03:45:51.573Z,1014.47
2019-04-22T03:47:02.322Z,1014.40
2019-04-22T03:49:12.082Z,1014.40
2019-04-22T03:50:03.998Z,1014.40
2019-04-22T03:51:01.934Z,1014.41
2019-04-22T03:52:07.314Z,1014.40
2019-04-22T03:54:04.817Z,1014.40
2019-04-22T03:55:05.090Z,1014.36
2019-04-22T03:55:59.800Z,1014.35
2019-04-22T03:57:55.543Z,1014.35
2019-04-22T03:58:58.701Z,1014.33
2019-04-22T04:00:55.345Z,1014.33
2019-04-22T04:02:15.563Z,1014.30
2019-04-22T04:02:54.777Z,1014.33
2019-04-22T04:04:01.106Z,1014.33
2019-04-22T04:04:50.973Z,1014.34
2019-04-22T04:05:54.133Z,1014.33
2019-04-22T04:10:01.087Z,1014.31
2019-04-22T04:11:59.970Z,1014.30
2019-04-22T04:13:01.942Z,1014.31
2019-04-22T04:14:05.301Z,1014.34
2019-04-22T04:17:54.943Z,1014.28
2019-04-22T04:20:05.479Z,1014.28
2019-04-22T04:21:14.531Z,1014.26
2019-04-22T04:21:48.432Z,1014.27
2019-04-22T04:24:19.889Z,1014.32
2019-04-22T04:25:08.387Z,1014.35
2019-04-22T04:29:06.296Z,1014.36
2019-04-22T04:30:59.844Z,1014.37
2019-04-22T04:32:07.261Z,1014.35
2019-04-22T04:33:05.180Z,1014.39
2019-04-22T04:33:53.928Z,1014.43
2019-04-22T04:35:54.835Z,1014.45
2019-04-22T04:37:07.436Z,1014.44
2019-04-22T04:39:02.940Z,1014.52
2019-04-22T04:40:04.759Z,1014.55
2019-04-22T04:42:07.304Z,1014.55
2019-04-22T04:42:54.304Z,1014.62
2019-04-22T04:44:06.174Z,1014.58
2019-04-22T04:45:11.795Z,1014.62
2019-04-22T04:45:59.475Z,1014.64
2019-04-22T04:49:58.457Z,1014.69
2019-04-22T04:51:07.766Z,1014.71
2019-04-22T04:52:19.770Z,1014.66
2019-04-22T04:54:08.703Z,1014.62
2019-04-22T04:54:59.430Z,1014.66
2019-04-22T04:55:53.143Z,1014.64
2019-04-22T04:56:56.618Z,1014.71
2019-04-22T04:58:03.984Z,1014.67
2019-04-22T04:59:05.694Z,1014.74
2019-04-22T05:00:26.197Z,1014.76
2019-04-22T05:00:58.032Z,1014.73
2019-04-22T05:01:56.037Z,1014.82
2019-04-22T05:03:00.559Z,1014.81
2019-04-22T05:04:04.535Z,1014.82
2019-04-22T05:05:10.487Z,1014.80
2019-04-22T05:07:05.771Z,1014.81
2019-04-22T05:07:56.497Z,1014.86
2019-04-22T05:09:15.059Z,1014.84
2019-04-22T05:10:03.881Z,1014.88
2019-04-22T05:11:00.546Z,1014.90
2019-04-22T05:13:01.899Z,1014.88
2019-04-22T05:13:57.654Z,1014.91
2019-04-22T05:14:55.133Z,1014.94
2019-04-22T05:16:10.612Z,1014.95
2019-04-22T05:16:54.645Z,1014.91
2019-04-22T05:17:57.990Z,1014.95
2019-04-22T05:19:02.523Z,1014.91
2019-04-22T05:20:00.961Z,1014.94
2019-04-22T05:21:06.806Z,1014.98
2019-04-22T05:21:55.983Z,1014.98
2019-04-22T05:22:51.042Z,1015.08
2019-04-22T05:23:54.602Z,1015.08
2019-04-22T05:24:56.884Z,1015.12
2019-04-22T05:25:51.238Z,1015.14
2019-04-22T05:27:08.682Z,1015.11
2019-04-22T05:28:07.584Z,1015.13
2019-04-22T05:28:49.962Z,1015.22
2019-04-22T05:30:45.993Z,1015.20
2019-04-22T05:31:53.494Z,1015.31
2019-04-22T05:32:52.158Z,1015.39
2019-04-22T05:33:48.416Z,1015.48
2019-04-22T05:34:48.091Z,1015.62
2019-04-22T05:35:46.426Z,1015.62
2019-04-22T05:36:48.233Z,1015.67
2019-04-22T05:39:53.200Z,1015.61
2019-04-22T05:40:51.509Z,1015.52
2019-04-22T05:41:48.285Z,1015.40
2019-04-22T05:42:51.260Z,1015.37
2019-04-22T05:43:50.215Z,1015.35
2019-04-22T05:44:52.837Z,1015.33
2019-04-22T05:45:56.330Z,1015.36
2019-04-22T05:46:49.844Z,1015.41
2019-04-22T05:47:52.267Z,1015.42
2019-04-22T05:48:53.537Z,1015.46
2019-04-22T05:49:48.329Z,1015.40
2019-04-22T05:50:54.807Z,1015.41
2019-04-22T05:51:48.544Z,1015.42
2019-04-22T05:52:49.876Z,1015.47
2019-04-22T05:53:49.474Z,1015.47
2019-04-22T05:54:50.534Z,1015.50
2019-04-22T05:55:48.898Z,1015.55
2019-04-22T05:57:03.939Z,1015.63
2019-04-22T05:57:51.019Z,1015.75
2019-04-22T05:58:53.225Z,1015.81
2019-04-22T05:59:52.206Z,1015.90
2019-04-22T06:01:11.902Z,1015.96
2019-04-22T06:02:16.399Z,1015.95
2019-04-22T06:02:53.550Z,1015.93
2019-04-22T06:03:53.119Z,1015.92
2019-04-22T06:04:54.971Z,1015.92
2019-04-22T06:05:47.263Z,1015.89
2019-04-22T06:06:51.596Z,1016.00
2019-04-22T06:07:47.297Z,1015.92
2019-04-22T06:08:51.257Z,1015.93
2019-04-22T06:09:49.248Z,1015.96
2019-04-22T06:10:55.798Z,1015.94
2019-04-22T06:11:40.607Z,1015.97
2019-04-22T06:12:43.385Z,1015.93
2019-04-22T06:13:46.134Z,1015.90
2019-04-22T06:14:47.915Z,1015.89
2019-04-22T06:15:49.659Z,1015.88
2019-04-22T06:16:50.261Z,1015.80
2019-04-22T06:17:55.716Z,1015.81
2019-04-22T06:18:52.739Z,1015.75
2019-04-22T06:19:55.930Z,1015.67
2019-04-22T06:20:56.488Z,1015.53
2019-04-22T06:22:07.100Z,1015.40
2019-04-22T06:22:51.014Z,1015.14
2019-04-22T06:23:54.661Z,1015.14
2019-04-22T06:24:53.872Z,1015.14
2019-04-22T06:26:10.040Z,1015.29
2019-04-22T06:27:08.298Z,1015.23
2019-04-22T06:28:00.266Z,1015.06
2019-04-22T06:29:46.333Z,1015.01
2019-04-22T06:30:50.295Z,1014.96
2019-04-22T06:32:11.622Z,1014.93
2019-04-22T06:32:51.769Z,1014.95
2019-04-22T06:33:54.457Z,1014.96
2019-04-22T06:34:48.277Z,1014.93
2019-04-22T06:35:50.111Z,1014.96
2019-04-22T06:36:51.113Z,1014.91
2019-04-22T06:38:14.559Z,1014.90
2019-04-22T06:38:46.999Z,1014.87
2019-04-22T06:39:47.756Z,1014.91
2019-04-22T06:40:59.686Z,1014.88
2019-04-22T06:42:00.961Z,1014.90
2019-04-22T06:42:52.151Z,1014.83
2019-04-22T06:43:56.166Z,1014.87
2019-04-22T06:44:56.389Z,1014.84
2019-04-22T06:45:43.555Z,1014.93
2019-04-22T06:48:47.970Z,1014.88
2019-04-22T06:49:48.281Z,1014.87
2019-04-22T06:50:47.558Z,1014.86
2019-04-22T06:52:08.736Z,1014.90
2019-04-22T06:52:55.603Z,1014.87
2019-04-22T06:53:49.387Z,1014.92
2019-04-22T06:54:48.912Z,1014.89
2019-04-22T06:56:48.479Z,1014.90
2019-04-22T06:57:52.722Z,1014.92
2019-04-22T06:58:47.744Z,1014.92
2019-04-22T06:59:55.374Z,1014.90
2019-04-22T07:00:44.494Z,1014.93
2019-04-22T07:01:48.612Z,1014.94
2019-04-22T07:03:11.007Z,1014.94
2019-04-22T07:04:55.214Z,1014.97
2019-04-22T07:05:46.375Z,1014.99
2019-04-22T07:06:56.525Z,1015.00
2019-04-22T07:07:54.984Z,1015.02
2019-04-22T07:09:14.401Z,1015.10
2019-04-22T07:10:49.071Z,1015.05
2019-04-22T07:11:51.484Z,1015.00
2019-04-22T07:12:48.722Z,1015.01
2019-04-22T07:13:54.858Z,1015.06
2019-04-22T07:14:48.878Z,1014.96
2019-04-22T07:15:56.326Z,1014.98
2019-04-22T07:16:52.516Z,1014.94
2019-04-22T07:17:52.240Z,1015.02
2019-04-22T07:18:48.729Z,1015.07
2019-04-22T07:20:04.059Z,1015.01
2019-04-22T07:20:51.314Z,1015.13
2019-04-22T07:21:53.826Z,1015.01
2019-04-22T07:24:21.220Z,1014.96
2019-04-22T07:25:45.152Z,1014.90
2019-04-22T07:26:54.381Z,1014.92
2019-04-22T07:27:46.950Z,1014.92
2019-04-22T07:28:49.017Z,1014.82
2019-04-22T07:29:55.333Z,1014.91
2019-04-22T07:30:53.415Z,1014.89
2019-04-22T07:31:54.713Z,1014.90
2019-04-22T07:33:12.660Z,1014.88
2019-04-22T07:34:52.285Z,1014.90
2019-04-22T07:37:09.564Z,1014.89
2019-04-22T07:38:42.819Z,1014.93
2019-04-22T07:39:45.389Z,1014.86
2019-04-22T07:40:51.913Z,1014.91
2019-04-22T07:41:51.364Z,1014.86
2019-04-22T07:42:48.149Z,1014.89
2019-04-22T07:44:51.181Z,1014.86
2019-04-22T07:45:49.182Z,1014.92
2019-04-22T07:47:00.834Z,1014.86
2019-04-22T07:47:52.426Z,1014.86
2019-04-22T07:48:51.816Z,1014.80
2019-04-22T07:49:50.873Z,1014.90
2019-04-22T07:51:49.840Z,1014.86
2019-04-22T07:52:45.013Z,1014.82
2019-04-22T07:53:48.993Z,1014.85
2019-04-22T07:54:53.062Z,1014.83
2019-04-22T07:55:47.526Z,1014.82
2019-04-22T07:56:55.986Z,1014.83
2019-04-22T07:58:05.336Z,1014.82
2019-04-22T07:58:51.783Z,1014.83
2019-04-22T07:59:49.067Z,1014.74
2019-04-22T08:00:53.024Z,1014.75
2019-04-22T08:01:53.718Z,1014.80
2019-04-22T08:02:50.387Z,1014.75
2019-04-22T08:03:58.689Z,1014.88
2019-04-22T08:04:58.034Z,1014.75
2019-04-22T08:05:58.858Z,1014.71
2019-04-22T08:06:52.802Z,1014.73
2019-04-22T08:07:52.151Z,1014.90
2019-04-22T08:08:58.410Z,1014.76
2019-04-22T08:10:49.957Z,1014.75
2019-04-22T08:12:20.234Z,1014.71
2019-04-22T08:12:55.794Z,1014.84
2019-04-22T08:13:48.119Z,1014.73
2019-04-22T08:15:56.908Z,1014.78
2019-04-22T08:16:51.831Z,1014.72
2019-04-22T08:18:04.971Z,1014.73
2019-04-22T08:18:46.001Z,1014.71
2019-04-22T08:19:53.166Z,1014.66
2019-04-22T08:20:52.059Z,1014.81
2019-04-22T08:21:52.202Z,1014.72
2019-04-22T08:22:56.088Z,1014.66
2019-04-22T08:23:50.891Z,1014.71
2019-04-22T08:24:51.444Z,1014.72
2019-04-22T08:25:47.456Z,1014.71
2019-04-22T08:26:56.444Z,1014.77
2019-04-22T08:27:51.897Z,1014.74
2019-04-22T08:28:53.299Z,1014.66
2019-04-22T08:29:58.700Z,1014.75
2019-04-22T08:32:05.120Z,1014.74
2019-04-22T08:34:47.588Z,1014.77
2019-04-22T08:36:12.002Z,1014.86
2019-04-22T08:37:12.012Z,1014.86
2019-04-22T08:37:51.105Z,1014.56
2019-04-22T08:38:53.920Z,1014.76
2019-04-22T08:39:49.972Z,1014.71
2019-04-22T08:40:58.081Z,1014.78
2019-04-22T08:41:48.186Z,1014.74
2019-04-22T08:42:55.502Z,1014.70
2019-04-22T08:43:57.710Z,1014.78
2019-04-22T08:45:09.188Z,1014.73
2019-04-22T08:45:54.624Z,1014.70
2019-04-22T08:46:57.737Z,1014.79
2019-04-22T08:47:50.557Z,1014.74
2019-04-22T08:48:55.681Z,1014.76
2019-04-22T08:49:56.977Z,1014.73
2019-04-22T08:50:51.928Z,1014.93
2019-04-22T08:51:49.057Z,1014.73
2019-04-22T08:52:48.397Z,1014.71
2019-04-22T08:53:57.221Z,1014.73
2019-04-22T08:54:53.668Z,1014.79
2019-04-22T08:55:59.557Z,1014.70
2019-04-22T08:58:09.155Z,1014.72
2019-04-22T08:58:57.384Z,1014.73
2019-04-22T08:59:49.038Z,1014.63
2019-04-22T09:01:04.618Z,1014.67
2019-04-22T09:01:46.868Z,1014.63
2019-04-22T09:02:53.993Z,1014.67
2019-04-22T09:03:52.675Z,1014.81
2019-04-22T09:04:48.052Z,1014.75
2019-04-22T09:07:59.787Z,1014.80
2019-04-22T09:08:58.538Z,1014.61
2019-04-22T09:09:50.774Z,1014.66
2019-04-22T09:10:49.007Z,1014.70
2019-04-22T09:11:57.737Z,1014.66
2019-04-22T09:12:57.617Z,1014.66
2019-04-22T09:14:05.876Z,1014.63
2019-04-22T09:14:47.246Z,1014.80
2019-04-22T09:15:53.706Z,1014.68
2019-04-22T09:16:48.301Z,1014.67
2019-04-22T09:18:08.451Z,1014.67
2019-04-22T09:18:48.575Z,1014.68
2019-04-22T09:19:47.886Z,1014.67
2019-04-22T09:21:04.271Z,1014.66
2019-04-22T09:21:56.398Z,1014.57
2019-04-22T09:22:56.963Z,1014.63
2019-04-22T09:23:53.930Z,1014.62
2019-04-22T09:24:46.911Z,1014.60
2019-04-22T09:25:51.183Z,1014.57
2019-04-22T09:26:50.519Z,1014.62
2019-04-22T09:27:53.684Z,1014.58
2019-04-22T09:28:52.276Z,1014.66
2019-04-22T09:29:55.530Z,1014.62
2019-04-22T09:30:56.917Z,1014.55
2019-04-22T09:31:53.603Z,1014.54
2019-04-22T09:32:59.523Z,1014.49
2019-04-22T09:33:51.496Z,1014.74
2019-04-22T09:34:51.392Z,1014.60
2019-04-22T09:35:52.417Z,1014.63
2019-04-22T09:36:50.251Z,1014.62
2019-04-22T09:37:57.458Z,1014.61
2019-04-22T09:38:46.796Z,1014.53
2019-04-22T09:41:10.109Z,1014.55
2019-04-22T09:41:51.097Z,1014.58
2019-04-22T09:42:51.717Z,1014.56
2019-04-22T09:43:52.143Z,1014.51
2019-04-22T09:44:53.347Z,1014.47
2019-04-22T09:45:51.099Z,1014.48
2019-04-22T09:47:56.737Z,1014.64
2019-04-22T09:48:51.874Z,1014.54
2019-04-22T09:49:56.708Z,1014.47
2019-04-22T09:50:47.941Z,1014.52
2019-04-22T09:51:56.977Z,1014.52
2019-04-22T09:52:53.218Z,1014.42
2019-04-22T09:55:55.608Z,1014.44
2019-04-22T09:56:51.743Z,1014.33
2019-04-22T09:57:50.913Z,1014.33
2019-04-22T09:58:52.361Z,1014.29
2019-04-22T09:59:58.003Z,1014.36
2019-04-22T10:01:00.198Z,1014.43
2019-04-22T10:01:59.623Z,1014.38
2019-04-22T10:02:59.309Z,1014.40
2019-04-22T10:03:56.310Z,1014.33
2019-04-22T10:04:55.214Z,1014.32
2019-04-22T10:06:06.174Z,1014.42
2019-04-22T10:06:44.336Z,1014.39
2019-04-22T10:07:52.507Z,1014.43
2019-04-22T10:09:02.079Z,1014.37
2019-04-22T10:09:59.749Z,1014.30
2019-04-22T10:11:00.801Z,1014.29
2019-04-22T10:11:51.090Z,1014.28
2019-04-22T10:12:46.806Z,1014.28
2019-04-22T10:13:53.593Z,1014.23
2019-04-22T10:14:49.264Z,1014.27
2019-04-22T10:15:59.020Z,1014.15
2019-04-22T10:16:51.433Z,1014.19
2019-04-22T10:17:54.498Z,1014.10
2019-04-22T10:18:54.459Z,1014.09
2019-04-22T10:20:53.866Z,1014.06
2019-04-22T10:21:50.134Z,1014.00
2019-04-22T10:22:53.259Z,1013.93
2019-04-22T10:23:53.519Z,1013.98
2019-04-22T10:24:53.216Z,1014.00
2019-04-22T10:25:53.792Z,1013.97
2019-04-22T10:26:54.951Z,1013.92
2019-04-22T10:27:59.927Z,1014.00
2019-04-22T10:28:53.118Z,1013.86
2019-04-22T10:29:54.125Z,1013.86
2019-04-22T10:31:49.753Z,1013.84
2019-04-22T10:32:47.581Z,1013.81
2019-04-22T10:33:40.904Z,1013.81
2019-04-22T10:34:34.997Z,1013.86
2019-04-22T10:35:28.696Z,1013.88
2019-04-22T10:36:25.707Z,1013.91
2019-04-22T10:37:25.782Z,1013.84
2019-04-22T10:38:26.465Z,1013.89
2019-04-22T10:39:37.880Z,1013.88
2019-04-22T10:40:25.748Z,1013.78
2019-04-22T10:41:26.324Z,1013.84
2019-04-22T10:42:25.515Z,1013.85
2019-04-22T10:43:25.523Z,1013.81
2019-04-22T10:44:26.875Z,1013.77
2019-04-22T10:45:26.084Z,1013.81
2019-04-22T10:46:26.362Z,1013.78
2019-04-22T10:47:25.771Z,1013.74
2019-04-22T10:48:26.187Z,1013.71
2019-04-22T10:49:26.550Z,1013.68
2019-04-22T10:50:25.699Z,1013.87
2019-04-22T10:51:26.569Z,1013.76
2019-04-22T10:52:25.696Z,1013.77
2019-04-22T10:53:25.803Z,1013.80
2019-04-22T10:54:25.642Z,1013.72
2019-04-22T10:55:25.642Z,1013.76
2019-04-22T10:56:25.606Z,1013.74
2019-04-22T10:57:25.683Z,1013.75
2019-04-22T10:58:26.645Z,1013.79
2019-04-22T10:59:26.867Z,1013.89
2019-04-22T11:00:25.621Z,1013.70
2019-04-22T11:01:25.731Z,1013.89
2019-04-22T11:02:25.709Z,1013.80
2019-04-22T11:03:28.043Z,1013.67
2019-04-22T11:04:25.964Z,1013.69
2019-04-22T11:05:26.182Z,1013.64
2019-04-22T11:06:25.676Z,1013.64
2019-04-22T11:07:36.328Z,1013.75
2019-04-22T11:08:35.027Z,1013.77
2019-04-22T11:09:26.960Z,1013.74
2019-04-22T11:10:41.222Z,1013.66
2019-04-22T11:11:37.510Z,1013.69
2019-04-22T11:12:30.000Z,1013.59
2019-04-22T11:13:26.248Z,1013.63
2019-04-22T11:14:26.593Z,1013.57
2019-04-22T11:15:26.597Z,1013.53
2019-04-22T11:16:25.792Z,1013.92
2019-04-22T11:17:26.077Z,1013.68
2019-04-22T11:18:25.886Z,1013.63
2019-04-22T11:19:25.790Z,1013.69
2019-04-22T11:20:26.033Z,1013.60
2019-04-22T11:21:25.855Z,1013.63
2019-04-22T11:22:31.253Z,1013.67
2019-04-22T11:23:27.021Z,1013.63
2019-04-22T11:24:26.679Z,1013.67
2019-04-22T11:25:25.885Z,1013.60
2019-04-22T11:26:26.002Z,1013.60
2019-04-22T11:27:25.915Z,1013.56
2019-04-22T11:28:27.313Z,1013.52
2019-04-22T11:29:25.897Z,1013.57
2019-04-22T11:30:28.079Z,1013.53
2019-04-22T11:31:26.446Z,1013.56
2019-04-22T11:32:26.622Z,1013.49
2019-04-22T11:33:26.741Z,1013.53
2019-04-22T11:34:26.936Z,1013.44
2019-04-22T11:35:25.932Z,1013.45
2019-04-22T11:36:30.157Z,1013.55
2019-04-22T11:37:25.934Z,1013.60
2019-04-22T11:38:26.792Z,1013.59
2019-04-22T11:39:28.977Z,1013.63
2019-04-22T11:40:35.730Z,1013.63
2019-04-22T11:41:25.959Z,1013.52
2019-04-22T11:42:26.041Z,1013.54
2019-04-22T11:43:26.225Z,1013.53
2019-04-22T11:44:27.518Z,1013.54
2019-04-22T11:45:27.077Z,1013.59
2019-04-22T11:46:27.237Z,1013.53
2019-04-22T11:47:27.406Z,1013.52
2019-04-22T11:48:27.047Z,1013.42
2019-04-22T11:49:26.015Z,1013.43
2019-04-22T11:50:26.309Z,1013.49
2019-04-22T11:51:27.478Z,1013.44
2019-04-22T11:52:26.933Z,1013.48
2019-04-22T11:53:26.991Z,1013.46
2019-04-22T11:54:26.084Z,1013.41
2019-04-22T11:55:26.846Z,1013.46
2019-04-22T11:56:27.141Z,1013.45
2019-04-22T11:57:26.104Z,1013.49
2019-04-22T11:58:26.593Z,1013.43
2019-04-22T11:59:26.849Z,1013.30
2019-04-22T12:00:27.036Z,1013.29
2019-04-22T12:01:26.679Z,1013.31
2019-04-22T12:02:27.170Z,1013.27
2019-04-22T12:03:27.154Z,1013.26
2019-04-22T12:04:27.569Z,1013.32
2019-04-22T12:05:26.156Z,1013.32
2019-04-22T12:06:26.347Z,1013.20
2019-04-22T12:07:26.729Z,1013.16
2019-04-22T12:08:27.101Z,1013.12
2019-04-22T12:09:26.214Z,1013.16
2019-04-22T12:10:34.672Z,1013.17
2019-04-22T12:11:26.337Z,1013.23
2019-04-22T12:12:27.722Z,1013.29
2019-04-22T12:13:26.337Z,1013.21
2019-04-22T12:14:27.655Z,1013.14
2019-04-22T12:15:26.787Z,1013.14
2019-04-22T12:16:27.380Z,1013.18
2019-04-22T12:17:26.550Z,1013.13
2019-04-22T12:18:27.106Z,1013.10
2019-04-22T12:19:27.124Z,1013.08
2019-04-22T12:20:27.563Z,1013.11
2019-04-22T12:21:26.687Z,1013.15
2019-04-22T12:22:26.956Z,1013.22
2019-04-22T12:23:27.311Z,1013.25
2019-04-22T12:24:26.315Z,1013.20
2019-04-22T12:25:34.698Z,1013.18
2019-04-22T12:26:26.983Z,1013.09
2019-04-22T12:27:28.779Z,1013.09
2019-04-22T12:28:26.836Z,1013.01
2019-04-22T12:29:26.942Z,1012.96
2019-04-22T12:30:27.775Z,1012.94
2019-04-22T12:31:27.259Z,1013.02
2019-04-22T12:32:27.402Z,1012.95
2019-04-22T12:33:27.736Z,1013.18
2019-04-22T12:34:26.416Z,1012.94
2019-04-22T12:35:26.407Z,1012.97
2019-04-22T12:36:26.652Z,1012.91
2019-04-22T12:37:35.605Z,1012.95
2019-04-22T12:38:27.437Z,1012.90
2019-04-22T12:39:27.476Z,1012.88
2019-04-22T12:40:37.263Z,1013.01
2019-04-22T12:41:27.682Z,1012.90
2019-04-22T12:42:27.093Z,1012.87
2019-04-22T12:43:27.814Z,1012.90
2019-04-22T12:44:26.643Z,1012.78
2019-04-22T12:45:26.690Z,1012.70
2019-04-22T12:46:28.058Z,1012.76
2019-04-22T12:47:26.518Z,1012.88
2019-04-22T12:48:27.479Z,1012.76
2019-04-22T12:49:27.934Z,1012.74
2019-04-22T12:50:31.846Z,1012.59
2019-04-22T12:51:27.197Z,1012.62
2019-04-22T12:52:34.211Z,1012.74
2019-04-22T12:53:28.003Z,1012.77
2019-04-22T12:54:26.933Z,1012.79
2019-04-22T12:55:27.864Z,1012.77
2019-04-22T12:56:27.817Z,1012.61
2019-04-22T12:57:26.642Z,1012.88
2019-04-22T12:58:27.644Z,1012.72
2019-04-22T12:59:27.944Z,1012.63
2019-04-22T13:00:26.693Z,1012.61
2019-04-22T13:01:26.883Z,1012.56
2019-04-22T13:02:27.030Z,1012.58
2019-04-22T13:03:26.696Z,1012.63
2019-04-22T13:04:27.976Z,1012.84
2019-04-22T13:05:26.973Z,1012.64
2019-04-22T13:06:27.885Z,1012.62
2019-04-22T13:07:26.706Z,1012.58
2019-04-22T13:08:27.614Z,1012.54
2019-04-22T13:09:27.481Z,1012.53
2019-04-22T13:10:39.084Z,1012.54
2019-04-22T13:11:30.803Z,1012.55
2019-04-22T13:12:26.778Z,1012.57
2019-04-22T13:13:27.175Z,1012.48
2019-04-22T13:14:27.388Z,1012.51
2019-04-22T13:15:26.830Z,1012.46
2019-04-22T13:16:27.048Z,1012.46
2019-04-22T13:17:27.199Z,1012.45
2019-04-22T13:18:35.279Z,1012.51
2019-04-22T13:19:28.260Z,1012.65
2019-04-22T13:20:28.070Z,1012.57
2019-04-22T13:21:26.976Z,1012.65
2019-04-22T13:22:27.061Z,1012.60
2019-04-22T13:23:27.555Z,1012.42
2019-04-22T13:24:27.982Z,1012.40
2019-04-22T13:25:28.820Z,1012.41
2019-04-22T13:26:27.236Z,1012.38
2019-04-22T13:27:26.934Z,1012.35